sensor_id;sensor_type;location;lat;lon;timestamp;temperature;humidity
19060;DHT22;9663;48.996;8.334;2023-08-07T00:00:40;17.30;60.00
19060;DHT22;9663;48.996;8.334;2023-08-07T00:03:05;17.20;60.00
19060;DHT22;9663;48.996;8.334;2023-08-07T00:05:31;17.20;60.00
19060;DHT22;9663;48.996;8.334;2023-08-07T00:07:57;17.20;60.00
19060;DHT22;9663;48.996;8.334;2023-08-07T00:10:22;17.20;60.00
19060;DHT22;9663;48.996;8.334;2023-08-07T00:12:49;17.20;60.00
19060;DHT22;9663;48.996;8.334;2023-08-07T00:15:15;17.20;60.00
19060;DHT22;9663;48.996;8.334;2023-08-07T00:17:41;17.20;60.00
19060;DHT22;9663;48.996;8.334;2023-08-07T00:20:08;17.20;60.00
19060;DHT22;9663;48.996;8.334;2023-08-07T00:22:34;17.20;60.00
19060;DHT22;9663;48.996;8.334;2023-08-07T00:24:59;17.20;60.00
19060;DHT22;9663;48.996;8.334;2023-08-07T00:27:25;17.20;60.00
19060;DHT22;9663;48.996;8.334;2023-08-07T00:29:51;17.20;60.00
19060;DHT22;9663;48.996;8.334;2023-08-07T00:32:16;17.20;60.00
19060;DHT22;9663;48.996;8.334;2023-08-07T00:34:42;17.20;60.00
19060;DHT22;9663;48.996;8.334;2023-08-07T00:37:08;17.20;60.00
19060;DHT22;9663;48.996;8.334;2023-08-07T00:39:34;17.20;60.00
19060;DHT22;9663;48.996;8.334;2023-08-07T00:41:59;17.20;59.90
19060;DHT22;9663;48.996;8.334;2023-08-07T00:44:25;17.20;60.00
19060;DHT22;9663;48.996;8.334;2023-08-07T00:46:51;17.20;60.00
19060;DHT22;9663;48.996;8.334;2023-08-07T00:49:19;17.20;60.00
19060;DHT22;9663;48.996;8.334;2023-08-07T00:51:45;17.20;59.90
19060;DHT22;9663;48.996;8.334;2023-08-07T00:54:12;17.20;59.90
19060;DHT22;9663;48.996;8.334;2023-08-07T00:56:43;17.10;59.90
19060;DHT22;9663;48.996;8.334;2023-08-07T00:59:09;17.10;59.90
19060;DHT22;9663;48.996;8.334;2023-08-07T01:01:35;17.10;59.90
19060;DHT22;9663;48.996;8.334;2023-08-07T01:04:01;17.10;59.90
19060;DHT22;9663;48.996;8.334;2023-08-07T01:06:27;17.00;59.90
19060;DHT22;9663;48.996;8.334;2023-08-07T01:08:53;17.00;59.90
19060;DHT22;9663;48.996;8.334;2023-08-07T01:11:44;17.00;59.90
19060;DHT22;9663;48.996;8.334;2023-08-07T01:14:36;16.90;60.00
19060;DHT22;9663;48.996;8.334;2023-08-07T01:17:15;16.90;59.90
19060;DHT22;9663;48.996;8.334;2023-08-07T01:19:42;16.90;60.00
19060;DHT22;9663;48.996;8.334;2023-08-07T01:22:12;16.90;59.90
19060;DHT22;9663;48.996;8.334;2023-08-07T01:24:44;16.80;60.00
19060;DHT22;9663;48.996;8.334;2023-08-07T01:29:54;16.80;60.20
19060;DHT22;9663;48.996;8.334;2023-08-07T01:33:02;16.80;60.20
19060;DHT22;9663;48.996;8.334;2023-08-07T01:35:42;16.80;60.20
19060;DHT22;9663;48.996;8.334;2023-08-07T01:38:11;16.80;60.00
19060;DHT22;9663;48.996;8.334;2023-08-07T01:40:39;16.80;60.10
19060;DHT22;9663;48.996;8.334;2023-08-07T01:43:05;16.80;60.10
19060;DHT22;9663;48.996;8.334;2023-08-07T01:45:31;16.80;60.10
19060;DHT22;9663;48.996;8.334;2023-08-07T01:47:57;16.80;60.20
19060;DHT22;9663;48.996;8.334;2023-08-07T01:50:24;16.70;60.10
19060;DHT22;9663;48.996;8.334;2023-08-07T01:52:50;16.70;60.10
19060;DHT22;9663;48.996;8.334;2023-08-07T01:55:17;16.70;60.00
19060;DHT22;9663;48.996;8.334;2023-08-07T01:57:44;16.60;60.00
19060;DHT22;9663;48.996;8.334;2023-08-07T02:00:10;16.60;60.00
19060;DHT22;9663;48.996;8.334;2023-08-07T02:02:36;16.60;60.00
19060;DHT22;9663;48.996;8.334;2023-08-07T02:05:03;16.50;60.00
19060;DHT22;9663;48.996;8.334;2023-08-07T02:07:30;16.50;60.00
19060;DHT22;9663;48.996;8.334;2023-08-07T02:09:56;16.50;60.10
19060;DHT22;9663;48.996;8.334;2023-08-07T02:12:22;16.40;60.10
19060;DHT22;9663;48.996;8.334;2023-08-07T02:14:48;16.40;60.10
19060;DHT22;9663;48.996;8.334;2023-08-07T02:17:14;16.30;60.20
19060;DHT22;9663;48.996;8.334;2023-08-07T02:19:40;16.30;60.30
19060;DHT22;9663;48.996;8.334;2023-08-07T02:22:05;16.30;60.40
19060;DHT22;9663;48.996;8.334;2023-08-07T02:24:31;16.20;60.40
19060;DHT22;9663;48.996;8.334;2023-08-07T02:26:57;16.20;60.40
19060;DHT22;9663;48.996;8.334;2023-08-07T02:29:23;16.20;60.50
19060;DHT22;9663;48.996;8.334;2023-08-07T02:31:48;16.10;60.70
19060;DHT22;9663;48.996;8.334;2023-08-07T02:34:14;16.10;60.70
19060;DHT22;9663;48.996;8.334;2023-08-07T02:36:40;16.10;60.70
19060;DHT22;9663;48.996;8.334;2023-08-07T02:39:07;16.10;60.80
19060;DHT22;9663;48.996;8.334;2023-08-07T02:41:32;16.10;60.90
19060;DHT22;9663;48.996;8.334;2023-08-07T02:43:58;16.00;60.80
19060;DHT22;9663;48.996;8.334;2023-08-07T02:46:24;16.00;60.90
19060;DHT22;9663;48.996;8.334;2023-08-07T02:48:49;16.00;61.00
19060;DHT22;9663;48.996;8.334;2023-08-07T02:51:15;15.90;61.10
19060;DHT22;9663;48.996;8.334;2023-08-07T02:53:41;15.90;61.10
19060;DHT22;9663;48.996;8.334;2023-08-07T02:56:07;15.90;61.10
19060;DHT22;9663;48.996;8.334;2023-08-07T02:58:32;15.80;61.10
19060;DHT22;9663;48.996;8.334;2023-08-07T03:01:04;15.90;61.20
19060;DHT22;9663;48.996;8.334;2023-08-07T03:03:31;15.80;61.40
19060;DHT22;9663;48.996;8.334;2023-08-07T03:05:57;15.80;61.20
19060;DHT22;9663;48.996;8.334;2023-08-07T03:08:23;15.70;61.30
19060;DHT22;9663;48.996;8.334;2023-08-07T03:10:53;15.80;61.50
19060;DHT22;9663;48.996;8.334;2023-08-07T03:13:21;15.70;61.60
19060;DHT22;9663;48.996;8.334;2023-08-07T03:15:47;15.70;61.50
19060;DHT22;9663;48.996;8.334;2023-08-07T03:18:18;15.70;61.60
19060;DHT22;9663;48.996;8.334;2023-08-07T03:20:43;15.70;61.60
19060;DHT22;9663;48.996;8.334;2023-08-07T03:23:10;15.60;61.80
19060;DHT22;9663;48.996;8.334;2023-08-07T03:25:36;15.60;61.70
19060;DHT22;9663;48.996;8.334;2023-08-07T03:28:02;15.60;61.80
19060;DHT22;9663;48.996;8.334;2023-08-07T03:30:28;15.60;61.80
19060;DHT22;9663;48.996;8.334;2023-08-07T03:32:54;15.60;62.10
19060;DHT22;9663;48.996;8.334;2023-08-07T03:35:19;15.60;62.00
19060;DHT22;9663;48.996;8.334;2023-08-07T03:37:45;15.60;62.20
19060;DHT22;9663;48.996;8.334;2023-08-07T03:40:11;15.50;62.10
19060;DHT22;9663;48.996;8.334;2023-08-07T03:42:36;15.50;62.10
19060;DHT22;9663;48.996;8.334;2023-08-07T03:45:02;15.50;62.10
19060;DHT22;9663;48.996;8.334;2023-08-07T03:47:28;15.60;62.20
19060;DHT22;9663;48.996;8.334;2023-08-07T03:49:54;15.60;62.20
19060;DHT22;9663;48.996;8.334;2023-08-07T03:52:19;15.60;62.20
19060;DHT22;9663;48.996;8.334;2023-08-07T03:54:46;15.60;62.20
19060;DHT22;9663;48.996;8.334;2023-08-07T03:57:11;15.60;62.30
19060;DHT22;9663;48.996;8.334;2023-08-07T03:59:37;15.70;62.30
19060;DHT22;9663;48.996;8.334;2023-08-07T04:02:03;15.70;62.30
19060;DHT22;9663;48.996;8.334;2023-08-07T04:04:29;15.70;62.30
19060;DHT22;9663;48.996;8.334;2023-08-07T04:06:54;15.80;62.40
19060;DHT22;9663;48.996;8.334;2023-08-07T04:09:20;15.80;62.30
19060;DHT22;9663;48.996;8.334;2023-08-07T04:11:46;15.80;62.30
19060;DHT22;9663;48.996;8.334;2023-08-07T04:14:11;15.80;62.30
19060;DHT22;9663;48.996;8.334;2023-08-07T04:16:37;15.90;62.40
19060;DHT22;9663;48.996;8.334;2023-08-07T04:19:03;15.90;62.40
19060;DHT22;9663;48.996;8.334;2023-08-07T04:21:30;15.90;62.30
19060;DHT22;9663;48.996;8.334;2023-08-07T04:23:56;15.90;62.30
19060;DHT22;9663;48.996;8.334;2023-08-07T04:26:21;16.00;62.20
19060;DHT22;9663;48.996;8.334;2023-08-07T04:28:47;16.00;62.10
19060;DHT22;9663;48.996;8.334;2023-08-07T04:31:13;16.00;62.10
19060;DHT22;9663;48.996;8.334;2023-08-07T04:33:39;16.00;62.10
19060;DHT22;9663;48.996;8.334;2023-08-07T04:36:04;16.00;62.00
19060;DHT22;9663;48.996;8.334;2023-08-07T04:38:30;16.00;62.10
19060;DHT22;9663;48.996;8.334;2023-08-07T04:40:56;16.00;62.10
19060;DHT22;9663;48.996;8.334;2023-08-07T04:43:22;16.00;62.10
19060;DHT22;9663;48.996;8.334;2023-08-07T04:45:48;16.00;62.10
19060;DHT22;9663;48.996;8.334;2023-08-07T04:48:14;16.00;62.10
19060;DHT22;9663;48.996;8.334;2023-08-07T04:50:40;16.10;62.10
19060;DHT22;9663;48.996;8.334;2023-08-07T04:53:06;16.10;62.10
19060;DHT22;9663;48.996;8.334;2023-08-07T04:55:32;16.10;62.20
19060;DHT22;9663;48.996;8.334;2023-08-07T04:57:58;16.10;62.10
19060;DHT22;9663;48.996;8.334;2023-08-07T05:00:24;16.20;62.10
19060;DHT22;9663;48.996;8.334;2023-08-07T05:02:51;16.20;62.10
19060;DHT22;9663;48.996;8.334;2023-08-07T05:05:17;16.20;62.10
19060;DHT22;9663;48.996;8.334;2023-08-07T05:07:46;16.20;62.00
19060;DHT22;9663;48.996;8.334;2023-08-07T05:10:15;16.20;62.00
19060;DHT22;9663;48.996;8.334;2023-08-07T05:12:41;16.20;62.00
19060;DHT22;9663;48.996;8.334;2023-08-07T05:15:07;16.30;62.10
19060;DHT22;9663;48.996;8.334;2023-08-07T05:17:32;16.30;62.10
19060;DHT22;9663;48.996;8.334;2023-08-07T05:19:58;16.30;62.00
19060;DHT22;9663;48.996;8.334;2023-08-07T05:22:24;16.30;62.00
19060;DHT22;9663;48.996;8.334;2023-08-07T05:24:49;16.30;62.00
19060;DHT22;9663;48.996;8.334;2023-08-07T05:27:15;16.40;62.00
19060;DHT22;9663;48.996;8.334;2023-08-07T05:29:41;16.40;62.00
19060;DHT22;9663;48.996;8.334;2023-08-07T05:32:14;16.40;62.00
19060;DHT22;9663;48.996;8.334;2023-08-07T05:34:40;16.50;62.10
19060;DHT22;9663;48.996;8.334;2023-08-07T05:37:06;16.50;62.00
19060;DHT22;9663;48.996;8.334;2023-08-07T05:39:34;16.50;62.00
19060;DHT22;9663;48.996;8.334;2023-08-07T05:42:00;16.60;62.00
19060;DHT22;9663;48.996;8.334;2023-08-07T05:44:26;16.60;62.00
19060;DHT22;9663;48.996;8.334;2023-08-07T05:46:52;16.60;61.90
19060;DHT22;9663;48.996;8.334;2023-08-07T05:49:17;16.70;61.90
19060;DHT22;9663;48.996;8.334;2023-08-07T05:51:44;16.70;62.00
19060;DHT22;9663;48.996;8.334;2023-08-07T05:54:10;16.80;62.00
19060;DHT22;9663;48.996;8.334;2023-08-07T05:56:37;16.90;62.00
19060;DHT22;9663;48.996;8.334;2023-08-07T05:59:03;16.90;61.90
19060;DHT22;9663;48.996;8.334;2023-08-07T06:01:29;16.90;61.70
19060;DHT22;9663;48.996;8.334;2023-08-07T06:03:58;17.00;61.70
19060;DHT22;9663;48.996;8.334;2023-08-07T06:06:24;17.00;61.70
19060;DHT22;9663;48.996;8.334;2023-08-07T06:08:51;17.10;61.70
19060;DHT22;9663;48.996;8.334;2023-08-07T06:11:17;17.10;61.60
19060;DHT22;9663;48.996;8.334;2023-08-07T06:13:43;17.10;61.50
19060;DHT22;9663;48.996;8.334;2023-08-07T06:16:09;17.10;61.50
19060;DHT22;9663;48.996;8.334;2023-08-07T06:18:35;17.20;61.40
19060;DHT22;9663;48.996;8.334;2023-08-07T06:21:02;17.10;61.30
19060;DHT22;9663;48.996;8.334;2023-08-07T06:23:29;17.20;61.30
19060;DHT22;9663;48.996;8.334;2023-08-07T06:25:55;17.20;61.40
19060;DHT22;9663;48.996;8.334;2023-08-07T06:28:22;17.20;61.50
19060;DHT22;9663;48.996;8.334;2023-08-07T06:30:48;17.20;61.60
19060;DHT22;9663;48.996;8.334;2023-08-07T06:33:13;17.20;61.60
19060;DHT22;9663;48.996;8.334;2023-08-07T06:35:39;17.20;61.70
19060;DHT22;9663;48.996;8.334;2023-08-07T06:38:08;17.30;61.70
19060;DHT22;9663;48.996;8.334;2023-08-07T06:40:35;17.40;61.70
19060;DHT22;9663;48.996;8.334;2023-08-07T06:43:01;17.50;61.90
19060;DHT22;9663;48.996;8.334;2023-08-07T06:45:26;17.60;61.70
19060;DHT22;9663;48.996;8.334;2023-08-07T06:47:52;17.70;61.60
19060;DHT22;9663;48.996;8.334;2023-08-07T06:50:18;17.80;61.40
19060;DHT22;9663;48.996;8.334;2023-08-07T06:52:43;17.90;62.10
19060;DHT22;9663;48.996;8.334;2023-08-07T06:55:09;18.00;61.20
19060;DHT22;9663;48.996;8.334;2023-08-07T06:57:35;18.00;61.10
19060;DHT22;9663;48.996;8.334;2023-08-07T07:00:00;18.00;61.10
19060;DHT22;9663;48.996;8.334;2023-08-07T07:02:26;18.10;61.00
19060;DHT22;9663;48.996;8.334;2023-08-07T07:04:51;18.10;60.70
19060;DHT22;9663;48.996;8.334;2023-08-07T07:07:17;18.20;60.80
19060;DHT22;9663;48.996;8.334;2023-08-07T07:09:43;18.20;60.70
19060;DHT22;9663;48.996;8.334;2023-08-07T07:12:08;18.20;60.70
19060;DHT22;9663;48.996;8.334;2023-08-07T07:14:34;18.30;60.60
19060;DHT22;9663;48.996;8.334;2023-08-07T07:17:00;18.30;60.60
19060;DHT22;9663;48.996;8.334;2023-08-07T07:19:26;18.40;60.50
19060;DHT22;9663;48.996;8.334;2023-08-07T07:21:51;18.40;60.40
19060;DHT22;9663;48.996;8.334;2023-08-07T07:24:18;18.50;60.10
19060;DHT22;9663;48.996;8.334;2023-08-07T07:26:44;18.50;60.10
19060;DHT22;9663;48.996;8.334;2023-08-07T07:29:09;18.50;60.00
19060;DHT22;9663;48.996;8.334;2023-08-07T07:31:35;18.60;60.10
19060;DHT22;9663;48.996;8.334;2023-08-07T07:34:01;18.70;60.20
19060;DHT22;9663;48.996;8.334;2023-08-07T07:36:27;18.70;60.00
19060;DHT22;9663;48.996;8.334;2023-08-07T07:38:52;18.80;60.00
19060;DHT22;9663;48.996;8.334;2023-08-07T07:41:18;18.90;59.50
19060;DHT22;9663;48.996;8.334;2023-08-07T07:43:44;18.90;59.40
19060;DHT22;9663;48.996;8.334;2023-08-07T07:46:10;19.00;59.30
19060;DHT22;9663;48.996;8.334;2023-08-07T07:48:35;19.10;59.10
19060;DHT22;9663;48.996;8.334;2023-08-07T07:51:02;19.10;58.90
19060;DHT22;9663;48.996;8.334;2023-08-07T07:53:29;19.10;58.80
19060;DHT22;9663;48.996;8.334;2023-08-07T07:55:55;19.20;58.80
19060;DHT22;9663;48.996;8.334;2023-08-07T07:58:21;19.20;58.80
19060;DHT22;9663;48.996;8.334;2023-08-07T08:00:47;19.20;58.60
19060;DHT22;9663;48.996;8.334;2023-08-07T08:03:13;19.30;58.30
19060;DHT22;9663;48.996;8.334;2023-08-07T08:05:39;19.40;58.20
19060;DHT22;9663;48.996;8.334;2023-08-07T08:08:06;19.40;58.10
19060;DHT22;9663;48.996;8.334;2023-08-07T08:10:35;19.40;57.90
19060;DHT22;9663;48.996;8.334;2023-08-07T08:13:01;19.50;58.10
19060;DHT22;9663;48.996;8.334;2023-08-07T08:15:29;19.50;58.10
19060;DHT22;9663;48.996;8.334;2023-08-07T08:17:55;19.50;58.10
19060;DHT22;9663;48.996;8.334;2023-08-07T08:20:21;19.70;58.30
19060;DHT22;9663;48.996;8.334;2023-08-07T08:22:47;19.80;58.20
19060;DHT22;9663;48.996;8.334;2023-08-07T08:25:13;20.00;58.30
19060;DHT22;9663;48.996;8.334;2023-08-07T08:27:39;20.10;57.80
19060;DHT22;9663;48.996;8.334;2023-08-07T08:30:06;20.20;57.30
19060;DHT22;9663;48.996;8.334;2023-08-07T08:32:32;20.20;56.90
19060;DHT22;9663;48.996;8.334;2023-08-07T08:34:58;20.30;57.00
19060;DHT22;9663;48.996;8.334;2023-08-07T08:37:24;20.40;56.90
19060;DHT22;9663;48.996;8.334;2023-08-07T08:39:50;20.40;56.90
19060;DHT22;9663;48.996;8.334;2023-08-07T08:42:15;20.40;56.40
19060;DHT22;9663;48.996;8.334;2023-08-07T08:44:55;20.40;55.80
19060;DHT22;9663;48.996;8.334;2023-08-07T08:47:22;20.50;56.10
19060;DHT22;9663;48.996;8.334;2023-08-07T08:50:00;20.50;56.30
19060;DHT22;9663;48.996;8.334;2023-08-07T08:52:28;20.60;56.20
19060;DHT22;9663;48.996;8.334;2023-08-07T08:54:57;20.70;56.60
19060;DHT22;9663;48.996;8.334;2023-08-07T08:57:24;20.80;56.20
19060;DHT22;9663;48.996;8.334;2023-08-07T08:59:51;21.00;56.00
19060;DHT22;9663;48.996;8.334;2023-08-07T09:02:17;21.10;56.00
19060;DHT22;9663;48.996;8.334;2023-08-07T09:04:44;21.30;55.40
19060;DHT22;9663;48.996;8.334;2023-08-07T09:07:15;21.40;54.60
19060;DHT22;9663;48.996;8.334;2023-08-07T09:09:44;21.40;54.80
19060;DHT22;9663;48.996;8.334;2023-08-07T09:12:16;21.50;54.60
19060;DHT22;9663;48.996;8.334;2023-08-07T09:14:52;21.50;54.10
19060;DHT22;9663;48.996;8.334;2023-08-07T09:17:23;21.60;54.30
19060;DHT22;9663;48.996;8.334;2023-08-07T09:19:52;21.70;54.30
19060;DHT22;9663;48.996;8.334;2023-08-07T09:22:19;21.80;53.90
19060;DHT22;9663;48.996;8.334;2023-08-07T09:24:45;21.90;53.80
19060;DHT22;9663;48.996;8.334;2023-08-07T09:27:12;22.00;54.00
19060;DHT22;9663;48.996;8.334;2023-08-07T09:29:39;22.10;53.60
19060;DHT22;9663;48.996;8.334;2023-08-07T09:32:12;22.20;53.80
19060;DHT22;9663;48.996;8.334;2023-08-07T09:34:42;22.30;53.80
19060;DHT22;9663;48.996;8.334;2023-08-07T09:37:09;22.40;53.10
19060;DHT22;9663;48.996;8.334;2023-08-07T09:39:36;22.50;53.30
19060;DHT22;9663;48.996;8.334;2023-08-07T09:42:03;22.50;53.10
19060;DHT22;9663;48.996;8.334;2023-08-07T09:44:39;22.60;52.80
19060;DHT22;9663;48.996;8.334;2023-08-07T09:47:18;22.70;52.40
19060;DHT22;9663;48.996;8.334;2023-08-07T09:49:45;22.80;52.10
19060;DHT22;9663;48.996;8.334;2023-08-07T09:52:13;22.80;51.80
19060;DHT22;9663;48.996;8.334;2023-08-07T09:54:41;22.80;51.90
19060;DHT22;9663;48.996;8.334;2023-08-07T09:57:07;22.80;51.50
19060;DHT22;9663;48.996;8.334;2023-08-07T09:59:33;22.80;51.60
19060;DHT22;9663;48.996;8.334;2023-08-07T10:02:00;22.80;51.70
19060;DHT22;9663;48.996;8.334;2023-08-07T10:04:30;22.80;51.40
19060;DHT22;9663;48.996;8.334;2023-08-07T10:06:57;22.90;51.70
19060;DHT22;9663;48.996;8.334;2023-08-07T10:09:24;23.00;51.20
19060;DHT22;9663;48.996;8.334;2023-08-07T10:11:51;23.10;50.80
19060;DHT22;9663;48.996;8.334;2023-08-07T10:14:18;23.10;50.70
19060;DHT22;9663;48.996;8.334;2023-08-07T10:16:45;23.10;50.80
19060;DHT22;9663;48.996;8.334;2023-08-07T10:19:11;23.10;50.70
19060;DHT22;9663;48.996;8.334;2023-08-07T10:21:39;23.10;50.70
19060;DHT22;9663;48.996;8.334;2023-08-07T10:24:06;23.20;50.00
19060;DHT22;9663;48.996;8.334;2023-08-07T10:26:35;23.20;50.30
19060;DHT22;9663;48.996;8.334;2023-08-07T10:29:08;23.20;50.30
19060;DHT22;9663;48.996;8.334;2023-08-07T10:31:36;23.30;50.10
19060;DHT22;9663;48.996;8.334;2023-08-07T10:34:04;23.30;49.90
19060;DHT22;9663;48.996;8.334;2023-08-07T10:36:34;23.30;49.30
19060;DHT22;9663;48.996;8.334;2023-08-07T10:39:12;23.40;49.70
19060;DHT22;9663;48.996;8.334;2023-08-07T10:41:45;23.50;49.50
19060;DHT22;9663;48.996;8.334;2023-08-07T10:44:22;23.60;49.50
19060;DHT22;9663;48.996;8.334;2023-08-07T10:46:53;23.60;48.60
19060;DHT22;9663;48.996;8.334;2023-08-07T10:49:38;23.70;49.60
19060;DHT22;9663;48.996;8.334;2023-08-07T10:52:12;23.80;48.30
19060;DHT22;9663;48.996;8.334;2023-08-07T10:54:41;23.70;48.10
19060;DHT22;9663;48.996;8.334;2023-08-07T10:57:14;23.60;48.20
19060;DHT22;9663;48.996;8.334;2023-08-07T11:02:26;23.30;47.40
19060;DHT22;9663;48.996;8.334;2023-08-07T11:04:54;23.10;48.00
19060;DHT22;9663;48.996;8.334;2023-08-07T11:07:29;22.90;48.00
19060;DHT22;9663;48.996;8.334;2023-08-07T11:09:57;22.80;48.20
19060;DHT22;9663;48.996;8.334;2023-08-07T11:12:27;22.60;48.40
19060;DHT22;9663;48.996;8.334;2023-08-07T11:14:57;22.40;48.50
19060;DHT22;9663;48.996;8.334;2023-08-07T11:17:29;22.30;48.00
19060;DHT22;9663;48.996;8.334;2023-08-07T11:19:57;22.10;48.30
19060;DHT22;9663;48.996;8.334;2023-08-07T11:22:24;22.00;48.40
19060;DHT22;9663;48.996;8.334;2023-08-07T11:24:50;21.90;48.80
19060;DHT22;9663;48.996;8.334;2023-08-07T11:27:16;21.70;49.20
19060;DHT22;9663;48.996;8.334;2023-08-07T11:29:47;21.70;49.50
19060;DHT22;9663;48.996;8.334;2023-08-07T11:32:14;21.60;49.50
19060;DHT22;9663;48.996;8.334;2023-08-07T11:34:40;21.60;50.00
19060;DHT22;9663;48.996;8.334;2023-08-07T11:37:06;21.60;49.70
19060;DHT22;9663;48.996;8.334;2023-08-07T11:39:31;21.70;49.90
19060;DHT22;9663;48.996;8.334;2023-08-07T11:41:57;21.70;50.20
19060;DHT22;9663;48.996;8.334;2023-08-07T11:44:23;21.90;50.20
19060;DHT22;9663;48.996;8.334;2023-08-07T11:46:50;22.00;49.90
19060;DHT22;9663;48.996;8.334;2023-08-07T11:49:16;22.10;49.90
19060;DHT22;9663;48.996;8.334;2023-08-07T11:51:43;22.20;50.60
19060;DHT22;9663;48.996;8.334;2023-08-07T11:54:14;22.30;50.00
19060;DHT22;9663;48.996;8.334;2023-08-07T11:56:41;22.40;49.30
19060;DHT22;9663;48.996;8.334;2023-08-07T11:59:08;22.60;49.80
19060;DHT22;9663;48.996;8.334;2023-08-07T12:01:37;22.70;49.70
19060;DHT22;9663;48.996;8.334;2023-08-07T12:06:35;23.10;49.00
19060;DHT22;9663;48.996;8.334;2023-08-07T12:09:05;23.20;49.20
19060;DHT22;9663;48.996;8.334;2023-08-07T12:11:38;23.40;48.20
19060;DHT22;9663;48.996;8.334;2023-08-07T12:14:04;23.60;48.10
19060;DHT22;9663;48.996;8.334;2023-08-07T12:16:36;23.70;48.00
19060;DHT22;9663;48.996;8.334;2023-08-07T12:19:03;23.80;47.40
19060;DHT22;9663;48.996;8.334;2023-08-07T12:21:29;23.90;47.90
19060;DHT22;9663;48.996;8.334;2023-08-07T12:23:59;24.20;48.20
19060;DHT22;9663;48.996;8.334;2023-08-07T12:26:24;24.80;48.00
19060;DHT22;9663;48.996;8.334;2023-08-07T12:28:50;25.40;47.80
19060;DHT22;9663;48.996;8.334;2023-08-07T12:31:17;25.80;47.50
19060;DHT22;9663;48.996;8.334;2023-08-07T12:33:43;26.20;47.20
19060;DHT22;9663;48.996;8.334;2023-08-07T12:36:08;26.50;46.20
19060;DHT22;9663;48.996;8.334;2023-08-07T12:38:34;26.60;45.20
19060;DHT22;9663;48.996;8.334;2023-08-07T12:40:59;26.50;44.70
19060;DHT22;9663;48.996;8.334;2023-08-07T12:43:25;26.40;43.90
19060;DHT22;9663;48.996;8.334;2023-08-07T12:45:52;26.30;43.80
19060;DHT22;9663;48.996;8.334;2023-08-07T12:48:18;26.10;43.80
19060;DHT22;9663;48.996;8.334;2023-08-07T12:50:45;25.90;44.20
19060;DHT22;9663;48.996;8.334;2023-08-07T12:53:11;26.00;45.10
19060;DHT22;9663;48.996;8.334;2023-08-07T12:55:36;26.30;46.20
19060;DHT22;9663;48.996;8.334;2023-08-07T12:58:02;26.70;46.10
19060;DHT22;9663;48.996;8.334;2023-08-07T13:00:28;27.10;45.20
19060;DHT22;9663;48.996;8.334;2023-08-07T13:02:54;27.40;44.20
19060;DHT22;9663;48.996;8.334;2023-08-07T13:05:22;27.30;42.90
19060;DHT22;9663;48.996;8.334;2023-08-07T13:07:48;27.10;42.20
19060;DHT22;9663;48.996;8.334;2023-08-07T13:10:15;26.70;41.80
19060;DHT22;9663;48.996;8.334;2023-08-07T13:12:43;26.30;42.10
19060;DHT22;9663;48.996;8.334;2023-08-07T13:15:12;26.00;42.50
19060;DHT22;9663;48.996;8.334;2023-08-07T13:17:40;25.80;43.10
19060;DHT22;9663;48.996;8.334;2023-08-07T13:20:07;25.80;43.40
19060;DHT22;9663;48.996;8.334;2023-08-07T13:22:35;25.80;43.70
19060;DHT22;9663;48.996;8.334;2023-08-07T13:25:05;26.00;44.10
19060;DHT22;9663;48.996;8.334;2023-08-07T13:27:31;26.40;44.20
19060;DHT22;9663;48.996;8.334;2023-08-07T13:29:58;26.70;43.60
19060;DHT22;9663;48.996;8.334;2023-08-07T13:32:25;27.30;44.50
19060;DHT22;9663;48.996;8.334;2023-08-07T13:34:51;27.80;44.60
19060;DHT22;9663;48.996;8.334;2023-08-07T13:37:17;28.40;43.40
19060;DHT22;9663;48.996;8.334;2023-08-07T13:39:42;28.70;42.10
19060;DHT22;9663;48.996;8.334;2023-08-07T13:42:08;28.70;41.40
19060;DHT22;9663;48.996;8.334;2023-08-07T13:44:36;28.40;40.60
19060;DHT22;9663;48.996;8.334;2023-08-07T13:47:03;27.90;40.30
19060;DHT22;9663;48.996;8.334;2023-08-07T13:49:29;27.30;40.10
19060;DHT22;9663;48.996;8.334;2023-08-07T13:51:55;26.70;40.50
19060;DHT22;9663;48.996;8.334;2023-08-07T13:54:21;26.20;40.80
19060;DHT22;9663;48.996;8.334;2023-08-07T13:56:47;25.70;41.30
19060;DHT22;9663;48.996;8.334;2023-08-07T13:59:13;25.20;41.80
19060;DHT22;9663;48.996;8.334;2023-08-07T14:01:39;24.90;42.10
19060;DHT22;9663;48.996;8.334;2023-08-07T14:04:05;24.70;43.30
19060;DHT22;9663;48.996;8.334;2023-08-07T14:06:30;24.70;43.80
19060;DHT22;9663;48.996;8.334;2023-08-07T14:08:56;24.90;44.10
19060;DHT22;9663;48.996;8.334;2023-08-07T14:11:22;25.00;44.00
19060;DHT22;9663;48.996;8.334;2023-08-07T14:13:51;25.10;43.60
19060;DHT22;9663;48.996;8.334;2023-08-07T14:16:17;25.10;43.20
19060;DHT22;9663;48.996;8.334;2023-08-07T14:18:42;25.00;43.10
19060;DHT22;9663;48.996;8.334;2023-08-07T14:21:08;24.80;42.70
19060;DHT22;9663;48.996;8.334;2023-08-07T14:23:34;24.60;42.80
19060;DHT22;9663;48.996;8.334;2023-08-07T14:26:00;24.50;43.00
19060;DHT22;9663;48.996;8.334;2023-08-07T14:28:26;24.20;43.20
19060;DHT22;9663;48.996;8.334;2023-08-07T14:30:56;24.10;43.40
19060;DHT22;9663;48.996;8.334;2023-08-07T14:33:23;23.90;43.20
19060;DHT22;9663;48.996;8.334;2023-08-07T14:35:48;23.80;43.70
19060;DHT22;9663;48.996;8.334;2023-08-07T14:38:14;23.70;44.00
19060;DHT22;9663;48.996;8.334;2023-08-07T14:40:40;23.60;44.00
19060;DHT22;9663;48.996;8.334;2023-08-07T14:43:06;23.80;45.10
19060;DHT22;9663;48.996;8.334;2023-08-07T14:45:32;24.30;45.60
19060;DHT22;9663;48.996;8.334;2023-08-07T14:47:58;25.00;46.00
19060;DHT22;9663;48.996;8.334;2023-08-07T14:50:23;25.90;46.20
19060;DHT22;9663;48.996;8.334;2023-08-07T14:52:49;26.70;45.50
19060;DHT22;9663;48.996;8.334;2023-08-07T14:55:15;27.30;44.00
19060;DHT22;9663;48.996;8.334;2023-08-07T14:57:41;27.60;42.40
19060;DHT22;9663;48.996;8.334;2023-08-07T15:00:07;27.60;41.50
19060;DHT22;9663;48.996;8.334;2023-08-07T15:02:34;27.40;41.40
19060;DHT22;9663;48.996;8.334;2023-08-07T15:04:59;27.30;42.00
19060;DHT22;9663;48.996;8.334;2023-08-07T15:07:25;27.20;41.90
19060;DHT22;9663;48.996;8.334;2023-08-07T15:09:50;27.20;42.20
19060;DHT22;9663;48.996;8.334;2023-08-07T15:12:16;27.20;41.80
19060;DHT22;9663;48.996;8.334;2023-08-07T15:14:42;27.20;41.70
19060;DHT22;9663;48.996;8.334;2023-08-07T15:17:08;27.20;41.40
19060;DHT22;9663;48.996;8.334;2023-08-07T15:19:34;27.10;41.30
19060;DHT22;9663;48.996;8.334;2023-08-07T15:21:59;27.30;42.30
19060;DHT22;9663;48.996;8.334;2023-08-07T15:24:25;27.70;43.30
19060;DHT22;9663;48.996;8.334;2023-08-07T15:26:50;28.20;42.50
19060;DHT22;9663;48.996;8.334;2023-08-07T15:29:16;28.50;41.10
19060;DHT22;9663;48.996;8.334;2023-08-07T15:31:42;28.50;40.80
19060;DHT22;9663;48.996;8.334;2023-08-07T15:34:07;28.50;40.20
19060;DHT22;9663;48.996;8.334;2023-08-07T15:36:33;28.30;40.00
19060;DHT22;9663;48.996;8.334;2023-08-07T15:38:58;28.10;39.70
19060;DHT22;9663;48.996;8.334;2023-08-07T15:41:24;27.80;39.40
19060;DHT22;9663;48.996;8.334;2023-08-07T15:43:50;27.50;39.20
19060;DHT22;9663;48.996;8.334;2023-08-07T15:46:16;27.20;39.40
19060;DHT22;9663;48.996;8.334;2023-08-07T15:48:43;26.90;39.70
19060;DHT22;9663;48.996;8.334;2023-08-07T15:51:09;26.70;39.40